sensor_id;sensor_type;location;lat;lon;timestamp;P1;durP1;ratioP1;P2;durP2;ratioP2
6983;SDS011;3532;51.118;7.210;2024-01-16T00:01:03;17.30;;;13.57;;
6983;SDS011;3532;51.118;7.210;2024-01-16T00:03:29;17.00;;;13.23;;
6983;SDS011;3532;51.118;7.210;2024-01-16T00:05:54;18.10;;;12.10;;
6983;SDS011;3532;51.118;7.210;2024-01-16T00:08:19;18.97;;;12.47;;
6983;SDS011;3532;51.118;7.210;2024-01-16T00:10:45;15.97;;;12.33;;
6983;SDS011;3532;51.118;7.210;2024-01-16T00:13:10;18.40;;;11.80;;
6983;SDS011;3532;51.118;7.210;2024-01-16T00:15:35;18.40;;;13.03;;
6983;SDS011;3532;51.118;7.210;2024-01-16T00:18:01;17.03;;;11.57;;
6983;SDS011;3532;51.118;7.210;2024-01-16T00:20:26;19.50;;;12.43;;
6983;SDS011;3532;51.118;7.210;2024-01-16T00:22:51;14.20;;;11.77;;
6983;SDS011;3532;51.118;7.210;2024-01-16T00:25:17;14.20;;;11.17;;
6983;SDS011;3532;51.118;7.210;2024-01-16T00:27:45;17.98;;;12.30;;
6983;SDS011;3532;51.118;7.210;2024-01-16T00:30:11;14.77;;;11.98;;
6983;SDS011;3532;51.118;7.210;2024-01-16T00:32:36;20.03;;;12.07;;
6983;SDS011;3532;51.118;7.210;2024-01-16T00:35:03;12.43;;;10.40;;
6983;SDS011;3532;51.118;7.210;2024-01-16T00:37:29;19.33;;;11.83;;
6983;SDS011;3532;51.118;7.210;2024-01-16T00:39:54;15.63;;;11.53;;
6983;SDS011;3532;51.118;7.210;2024-01-16T00:42:19;17.13;;;12.30;;
6983;SDS011;3532;51.118;7.210;2024-01-16T00:44:44;18.17;;;10.23;;
6983;SDS011;3532;51.118;7.210;2024-01-16T00:47:10;13.80;;;11.27;;
6983;SDS011;3532;51.118;7.210;2024-01-16T00:49:35;18.47;;;11.40;;
6983;SDS011;3532;51.118;7.210;2024-01-16T00:52:01;14.43;;;11.07;;
6983;SDS011;3532;51.118;7.210;2024-01-16T00:54:27;12.97;;;10.50;;
6983;SDS011;3532;51.118;7.210;2024-01-16T00:56:52;13.40;;;10.50;;
6983;SDS011;3532;51.118;7.210;2024-01-16T00:59:20;13.32;;;10.88;;
6983;SDS011;3532;51.118;7.210;2024-01-16T01:01:45;13.67;;;10.90;;
6983;SDS011;3532;51.118;7.210;2024-01-16T01:04:11;12.07;;;10.40;;
6983;SDS011;3532;51.118;7.210;2024-01-16T01:06:36;13.63;;;11.93;;
6983;SDS011;3532;51.118;7.210;2024-01-16T01:09:01;13.00;;;10.27;;
6983;SDS011;3532;51.118;7.210;2024-01-16T01:11:28;13.85;;;10.60;;
6983;SDS011;3532;51.118;7.210;2024-01-16T01:13:53;11.60;;;9.90;;
6983;SDS011;3532;51.118;7.210;2024-01-16T01:16:18;16.53;;;10.93;;
6983;SDS011;3532;51.118;7.210;2024-01-16T01:18:44;11.07;;;9.97;;
6983;SDS011;3532;51.118;7.210;2024-01-16T01:21:09;15.93;;;10.43;;
6983;SDS011;3532;51.118;7.210;2024-01-16T01:23:34;17.40;;;11.93;;
6983;SDS011;3532;51.118;7.210;2024-01-16T01:26:00;13.97;;;11.23;;
6983;SDS011;3532;51.118;7.210;2024-01-16T01:28:25;18.17;;;10.97;;
6983;SDS011;3532;51.118;7.210;2024-01-16T01:30:51;20.63;;;12.37;;
6983;SDS011;3532;51.118;7.210;2024-01-16T01:33:16;15.70;;;11.47;;
6983;SDS011;3532;51.118;7.210;2024-01-16T01:35:42;19.67;;;12.70;;
6983;SDS011;3532;51.118;7.210;2024-01-16T01:38:07;16.27;;;13.53;;
6983;SDS011;3532;51.118;7.210;2024-01-16T01:40:33;15.33;;;13.07;;
6983;SDS011;3532;51.118;7.210;2024-01-16T01:43:16;17.47;;;13.17;;
6983;SDS011;3532;51.118;7.210;2024-01-16T01:45:47;21.40;;;13.32;;
6983;SDS011;3532;51.118;7.210;2024-01-16T01:48:16;27.27;;;15.85;;
6983;SDS011;3532;51.118;7.210;2024-01-16T01:50:42;23.27;;;15.63;;
6983;SDS011;3532;51.118;7.210;2024-01-16T01:53:07;20.50;;;14.47;;
6983;SDS011;3532;51.118;7.210;2024-01-16T01:55:33;22.92;;;14.82;;
6983;SDS011;3532;51.118;7.210;2024-01-16T01:57:59;22.40;;;15.53;;
6983;SDS011;3532;51.118;7.210;2024-01-16T02:00:27;24.15;;;16.02;;
6983;SDS011;3532;51.118;7.210;2024-01-16T02:02:52;22.63;;;15.33;;
6983;SDS011;3532;51.118;7.210;2024-01-16T02:05:17;20.10;;;16.10;;
6983;SDS011;3532;51.118;7.210;2024-01-16T02:07:43;20.53;;;14.93;;
6983;SDS011;3532;51.118;7.210;2024-01-16T02:10:08;19.13;;;15.20;;
6983;SDS011;3532;51.118;7.210;2024-01-16T02:12:34;16.30;;;13.90;;
6983;SDS011;3532;51.118;7.210;2024-01-16T02:14:59;21.10;;;15.20;;
6983;SDS011;3532;51.118;7.210;2024-01-16T02:17:24;18.17;;;15.00;;
6983;SDS011;3532;51.118;7.210;2024-01-16T02:19:50;20.83;;;14.90;;
6983;SDS011;3532;51.118;7.210;2024-01-16T02:22:16;16.43;;;13.47;;
6983;SDS011;3532;51.118;7.210;2024-01-16T02:24:46;19.17;;;13.38;;
6983;SDS011;3532;51.118;7.210;2024-01-16T02:27:11;20.17;;;13.43;;
6983;SDS011;3532;51.118;7.210;2024-01-16T02:29:40;25.10;;;14.10;;
6983;SDS011;3532;51.118;7.210;2024-01-16T02:32:07;21.23;;;12.80;;
6983;SDS011;3532;51.118;7.210;2024-01-16T02:34:33;17.00;;;13.23;;
6983;SDS011;3532;51.118;7.210;2024-01-16T02:36:58;14.60;;;13.10;;
6983;SDS011;3532;51.118;7.210;2024-01-16T02:39:23;20.13;;;13.63;;
6983;SDS011;3532;51.118;7.210;2024-01-16T02:41:50;14.68;;;12.82;;
6983;SDS011;3532;51.118;7.210;2024-01-16T02:44:15;19.70;;;13.27;;
6983;SDS011;3532;51.118;7.210;2024-01-16T02:46:40;19.07;;;12.53;;
6983;SDS011;3532;51.118;7.210;2024-01-16T02:49:06;15.33;;;12.70;;
6983;SDS011;3532;51.118;7.210;2024-01-16T02:51:32;19.40;;;13.13;;
6983;SDS011;3532;51.118;7.210;2024-01-16T02:53:57;16.43;;;12.93;;
6983;SDS011;3532;51.118;7.210;2024-01-16T02:56:23;16.57;;;13.70;;
6983;SDS011;3532;51.118;7.210;2024-01-16T02:58:48;17.20;;;13.73;;
6983;SDS011;3532;51.118;7.210;2024-01-16T03:01:14;21.03;;;14.30;;
6983;SDS011;3532;51.118;7.210;2024-01-16T03:03:39;19.60;;;15.23;;
6983;SDS011;3532;51.118;7.210;2024-01-16T03:06:05;20.47;;;13.67;;
6983;SDS011;3532;51.118;7.210;2024-01-16T03:08:30;16.93;;;13.83;;
6983;SDS011;3532;51.118;7.210;2024-01-16T03:10:55;22.70;;;14.20;;
6983;SDS011;3532;51.118;7.210;2024-01-16T03:13:21;20.13;;;15.23;;
6983;SDS011;3532;51.118;7.210;2024-01-16T03:15:47;17.10;;;14.73;;
6983;SDS011;3532;51.118;7.210;2024-01-16T03:18:12;23.23;;;13.63;;
6983;SDS011;3532;51.118;7.210;2024-01-16T03:20:38;20.30;;;14.87;;
6983;SDS011;3532;51.118;7.210;2024-01-16T03:23:03;24.40;;;14.50;;
6983;SDS011;3532;51.118;7.210;2024-01-16T03:25:29;19.23;;;14.97;;
6983;SDS011;3532;51.118;7.210;2024-01-16T03:27:54;15.63;;;13.93;;
6983;SDS011;3532;51.118;7.210;2024-01-16T03:30:19;17.53;;;14.73;;
6983;SDS011;3532;51.118;7.210;2024-01-16T03:32:45;17.93;;;14.30;;
6983;SDS011;3532;51.118;7.210;2024-01-16T03:35:10;21.53;;;13.50;;
6983;SDS011;3532;51.118;7.210;2024-01-16T03:37:37;17.73;;;14.97;;
6983;SDS011;3532;51.118;7.210;2024-01-16T03:40:02;16.13;;;13.15;;
6983;SDS011;3532;51.118;7.210;2024-01-16T03:42:28;19.37;;;14.03;;
6983;SDS011;3532;51.118;7.210;2024-01-16T03:44:53;20.33;;;14.63;;
6983;SDS011;3532;51.118;7.210;2024-01-16T03:47:19;16.33;;;13.73;;
6983;SDS011;3532;51.118;7.210;2024-01-16T03:49:44;15.70;;;13.27;;
6983;SDS011;3532;51.118;7.210;2024-01-16T03:52:10;18.47;;;13.07;;
6983;SDS011;3532;51.118;7.210;2024-01-16T03:54:35;23.43;;;13.63;;
6983;SDS011;3532;51.118;7.210;2024-01-16T03:57:00;15.17;;;13.57;;
6983;SDS011;3532;51.118;7.210;2024-01-16T03:59:26;16.17;;;11.90;;
6983;SDS011;3532;51.118;7.210;2024-01-16T04:01:51;16.80;;;11.80;;
6983;SDS011;3532;51.118;7.210;2024-01-16T04:04:17;22.33;;;12.60;;
6983;SDS011;3532;51.118;7.210;2024-01-16T04:06:43;19.23;;;13.50;;
6983;SDS011;3532;51.118;7.210;2024-01-16T04:09:08;16.50;;;13.00;;
6983;SDS011;3532;51.118;7.210;2024-01-16T04:11:34;18.37;;;12.37;;
6983;SDS011;3532;51.118;7.210;2024-01-16T04:13:59;21.30;;;14.23;;
6983;SDS011;3532;51.118;7.210;2024-01-16T04:16:25;17.70;;;12.63;;
6983;SDS011;3532;51.118;7.210;2024-01-16T04:18:50;17.30;;;13.63;;
6983;SDS011;3532;51.118;7.210;2024-01-16T04:21:15;16.10;;;13.20;;
6983;SDS011;3532;51.118;7.210;2024-01-16T04:23:41;18.33;;;12.77;;
6983;SDS011;3532;51.118;7.210;2024-01-16T04:26:07;17.47;;;13.40;;
6983;SDS011;3532;51.118;7.210;2024-01-16T04:28:32;18.77;;;13.20;;
6983;SDS011;3532;51.118;7.210;2024-01-16T04:30:58;15.97;;;11.90;;
6983;SDS011;3532;51.118;7.210;2024-01-16T04:33:23;14.77;;;12.10;;
6983;SDS011;3532;51.118;7.210;2024-01-16T04:35:49;15.80;;;12.53;;
6983;SDS011;3532;51.118;7.210;2024-01-16T04:38:14;16.37;;;12.67;;
6983;SDS011;3532;51.118;7.210;2024-01-16T04:40:39;15.97;;;12.13;;
6983;SDS011;3532;51.118;7.210;2024-01-16T04:43:04;18.53;;;12.13;;
6983;SDS011;3532;51.118;7.210;2024-01-16T04:45:30;18.37;;;14.00;;
6983;SDS011;3532;51.118;7.210;2024-01-16T04:47:55;16.13;;;11.50;;
6983;SDS011;3532;51.118;7.210;2024-01-16T04:50:21;16.83;;;12.43;;
6983;SDS011;3532;51.118;7.210;2024-01-16T04:52:46;16.03;;;12.97;;
6983;SDS011;3532;51.118;7.210;2024-01-16T04:55:11;14.57;;;12.03;;
6983;SDS011;3532;51.118;7.210;2024-01-16T04:57:37;14.57;;;11.13;;
6983;SDS011;3532;51.118;7.210;2024-01-16T05:00:02;17.00;;;10.70;;
6983;SDS011;3532;51.118;7.210;2024-01-16T05:02:32;14.90;;;12.05;;
6983;SDS011;3532;51.118;7.210;2024-01-16T05:04:58;13.02;;;10.57;;
6983;SDS011;3532;51.118;7.210;2024-01-16T05:07:23;15.73;;;10.77;;
6983;SDS011;3532;51.118;7.210;2024-01-16T05:09:49;12.33;;;11.03;;
6983;SDS011;3532;51.118;7.210;2024-01-16T05:12:14;12.47;;;11.13;;
6983;SDS011;3532;51.118;7.210;2024-01-16T05:14:40;16.83;;;11.07;;
6983;SDS011;3532;51.118;7.210;2024-01-16T05:17:05;12.27;;;10.90;;
6983;SDS011;3532;51.118;7.210;2024-01-16T05:19:30;14.03;;;11.80;;
6983;SDS011;3532;51.118;7.210;2024-01-16T05:21:56;14.57;;;12.23;;
6983;SDS011;3532;51.118;7.210;2024-01-16T05:24:21;14.80;;;12.37;;
6983;SDS011;3532;51.118;7.210;2024-01-16T05:26:46;15.73;;;13.10;;
6983;SDS011;3532;51.118;7.210;2024-01-16T05:29:11;17.70;;;13.20;;
6983;SDS011;3532;51.118;7.210;2024-01-16T05:31:40;16.33;;;12.93;;
6983;SDS011;3532;51.118;7.210;2024-01-16T05:34:06;17.25;;;12.57;;
6983;SDS011;3532;51.118;7.210;2024-01-16T05:36:31;21.43;;;14.00;;
6983;SDS011;3532;51.118;7.210;2024-01-16T05:38:57;17.33;;;12.63;;
6983;SDS011;3532;51.118;7.210;2024-01-16T05:41:22;17.83;;;13.37;;
6983;SDS011;3532;51.118;7.210;2024-01-16T05:43:47;17.20;;;13.80;;
6983;SDS011;3532;51.118;7.210;2024-01-16T05:46:13;13.67;;;12.27;;
6983;SDS011;3532;51.118;7.210;2024-01-16T05:48:38;17.47;;;13.23;;
6983;SDS011;3532;51.118;7.210;2024-01-16T05:51:04;15.07;;;13.47;;
6983;SDS011;3532;51.118;7.210;2024-01-16T05:53:29;18.77;;;15.43;;
6983;SDS011;3532;51.118;7.210;2024-01-16T05:55:55;17.23;;;14.57;;
6983;SDS011;3532;51.118;7.210;2024-01-16T05:58:20;19.80;;;14.93;;
6983;SDS011;3532;51.118;7.210;2024-01-16T06:00:46;18.50;;;13.50;;
6983;SDS011;3532;51.118;7.210;2024-01-16T06:03:11;20.17;;;13.83;;
6983;SDS011;3532;51.118;7.210;2024-01-16T06:05:37;21.10;;;13.60;;
6983;SDS011;3532;51.118;7.210;2024-01-16T06:08:02;22.90;;;15.17;;
6983;SDS011;3532;51.118;7.210;2024-01-16T06:10:27;23.97;;;15.60;;
6983;SDS011;3532;51.118;7.210;2024-01-16T06:12:53;21.27;;;14.47;;
6983;SDS011;3532;51.118;7.210;2024-01-16T06:15:18;19.10;;;14.87;;
6983;SDS011;3532;51.118;7.210;2024-01-16T06:17:44;18.03;;;15.03;;
6983;SDS011;3532;51.118;7.210;2024-01-16T06:20:09;26.30;;;16.03;;
6983;SDS011;3532;51.118;7.210;2024-01-16T06:22:35;24.50;;;15.57;;
6983;SDS011;3532;51.118;7.210;2024-01-16T06:25:00;20.23;;;14.40;;
6983;SDS011;3532;51.118;7.210;2024-01-16T06:27:27;17.65;;;14.15;;
6983;SDS011;3532;51.118;7.210;2024-01-16T06:29:52;17.43;;;13.07;;
6983;SDS011;3532;51.118;7.210;2024-01-16T06:32:17;25.63;;;13.23;;
6983;SDS011;3532;51.118;7.210;2024-01-16T06:34:43;19.83;;;12.83;;
6983;SDS011;3532;51.118;7.210;2024-01-16T06:37:08;19.50;;;11.93;;
6983;SDS011;3532;51.118;7.210;2024-01-16T06:39:33;21.27;;;12.47;;
6983;SDS011;3532;51.118;7.210;2024-01-16T06:42:00;17.70;;;12.15;;
6983;SDS011;3532;51.118;7.210;2024-01-16T06:44:25;17.17;;;12.43;;
6983;SDS011;3532;51.118;7.210;2024-01-16T06:46:51;17.23;;;12.23;;
6983;SDS011;3532;51.118;7.210;2024-01-16T06:49:16;21.70;;;11.17;;
6983;SDS011;3532;51.118;7.210;2024-01-16T06:51:41;15.90;;;10.37;;
6983;SDS011;3532;51.118;7.210;2024-01-16T06:54:07;12.57;;;10.10;;
6983;SDS011;3532;51.118;7.210;2024-01-16T06:56:32;17.50;;;9.03;;
6983;SDS011;3532;51.118;7.210;2024-01-16T06:58:57;16.20;;;8.77;;
6983;SDS011;3532;51.118;7.210;2024-01-16T07:01:23;14.17;;;8.27;;
6983;SDS011;3532;51.118;7.210;2024-01-16T07:03:48;12.80;;;8.57;;
6983;SDS011;3532;51.118;7.210;2024-01-16T07:06:14;11.30;;;8.50;;
6983;SDS011;3532;51.118;7.210;2024-01-16T07:08:39;14.30;;;8.83;;
6983;SDS011;3532;51.118;7.210;2024-01-16T07:11:04;13.63;;;8.60;;
6983;SDS011;3532;51.118;7.210;2024-01-16T07:13:33;10.50;;;7.68;;
6983;SDS011;3532;51.118;7.210;2024-01-16T07:15:59;13.00;;;8.40;;
6983;SDS011;3532;51.118;7.210;2024-01-16T07:18:24;16.70;;;8.80;;
6983;SDS011;3532;51.118;7.210;2024-01-16T07:20:51;12.05;;;8.43;;
6983;SDS011;3532;51.118;7.210;2024-01-16T07:23:17;16.17;;;8.63;;
6983;SDS011;3532;51.118;7.210;2024-01-16T07:25:42;12.80;;;7.57;;
6983;SDS011;3532;51.118;7.210;2024-01-16T07:28:07;13.70;;;7.57;;
6983;SDS011;3532;51.118;7.210;2024-01-16T07:30:33;16.73;;;9.03;;
6983;SDS011;3532;51.118;7.210;2024-01-16T07:32:59;10.53;;;8.27;;
6983;SDS011;3532;51.118;7.210;2024-01-16T07:35:24;13.00;;;7.30;;
6983;SDS011;3532;51.118;7.210;2024-01-16T07:37:49;11.67;;;7.73;;
6983;SDS011;3532;51.118;7.210;2024-01-16T07:40:15;10.27;;;6.97;;
6983;SDS011;3532;51.118;7.210;2024-01-16T07:42:42;10.07;;;6.25;;
6983;SDS011;3532;51.118;7.210;2024-01-16T07:45:07;11.07;;;7.37;;
6983;SDS011;3532;51.118;7.210;2024-01-16T07:47:33;9.53;;;5.93;;
6983;SDS011;3532;51.118;7.210;2024-01-16T07:50:01;10.63;;;6.93;;
6983;SDS011;3532;51.118;7.210;2024-01-16T07:52:29;10.25;;;5.50;;
6983;SDS011;3532;51.118;7.210;2024-01-16T07:54:55;9.45;;;6.32;;
6983;SDS011;3532;51.118;7.210;2024-01-16T07:57:20;11.10;;;6.53;;
6983;SDS011;3532;51.118;7.210;2024-01-16T07:59:45;9.20;;;5.50;;
6983;SDS011;3532;51.118;7.210;2024-01-16T08:02:11;15.87;;;6.70;;
6983;SDS011;3532;51.118;7.210;2024-01-16T08:04:36;11.13;;;5.90;;
6983;SDS011;3532;51.118;7.210;2024-01-16T08:07:02;11.60;;;6.17;;
6983;SDS011;3532;51.118;7.210;2024-01-16T08:09:27;6.33;;;4.97;;
6983;SDS011;3532;51.118;7.210;2024-01-16T08:11:52;14.43;;;6.67;;
6983;SDS011;3532;51.118;7.210;2024-01-16T08:14:18;13.37;;;6.13;;
6983;SDS011;3532;51.118;7.210;2024-01-16T08:16:43;7.33;;;5.07;;
6983;SDS011;3532;51.118;7.210;2024-01-16T08:19:08;10.57;;;5.93;;
6983;SDS011;3532;51.118;7.210;2024-01-16T08:21:34;10.90;;;5.77;;
6983;SDS011;3532;51.118;7.210;2024-01-16T08:23:59;15.43;;;6.53;;
6983;SDS011;3532;51.118;7.210;2024-01-16T08:26:24;11.90;;;5.37;;
6983;SDS011;3532;51.118;7.210;2024-01-16T08:28:51;10.27;;;5.00;;
6983;SDS011;3532;51.118;7.210;2024-01-16T08:31:17;16.10;;;6.35;;
6983;SDS011;3532;51.118;7.210;2024-01-16T08:33:43;13.88;;;5.72;;
6983;SDS011;3532;51.118;7.210;2024-01-16T08:36:08;10.10;;;6.33;;
6983;SDS011;3532;51.118;7.210;2024-01-16T08:38:34;10.77;;;5.03;;
6983;SDS011;3532;51.118;7.210;2024-01-16T08:40:59;9.67;;;6.40;;
6983;SDS011;3532;51.118;7.210;2024-01-16T08:43:24;9.00;;;5.17;;
6983;SDS011;3532;51.118;7.210;2024-01-16T08:45:50;9.63;;;5.00;;
6983;SDS011;3532;51.118;7.210;2024-01-16T08:48:15;9.83;;;6.00;;
6983;SDS011;3532;51.118;7.210;2024-01-16T08:50:41;15.10;;;5.72;;
6983;SDS011;3532;51.118;7.210;2024-01-16T08:53:06;7.83;;;4.87;;
6983;SDS011;3532;51.118;7.210;2024-01-16T08:55:32;9.37;;;5.10;;
6983;SDS011;3532;51.118;7.210;2024-01-16T08:57:57;14.30;;;4.83;;
6983;SDS011;3532;51.118;7.210;2024-01-16T09:00:22;7.00;;;5.87;;
6983;SDS011;3532;51.118;7.210;2024-01-16T09:02:48;7.37;;;4.83;;
6983;SDS011;3532;51.118;7.210;2024-01-16T09:05:13;8.03;;;5.87;;
6983;SDS011;3532;51.118;7.210;2024-01-16T09:07:39;10.37;;;5.80;;
6983;SDS011;3532;51.118;7.210;2024-01-16T09:10:05;8.73;;;5.27;;
6983;SDS011;3532;51.118;7.210;2024-01-16T09:12:30;6.57;;;4.90;;
6983;SDS011;3532;51.118;7.210;2024-01-16T09:14:56;10.33;;;5.67;;
6983;SDS011;3532;51.118;7.210;2024-01-16T09:17:21;7.63;;;4.90;;
6983;SDS011;3532;51.118;7.210;2024-01-16T09:19:46;7.83;;;5.03;;
6983;SDS011;3532;51.118;7.210;2024-01-16T09:22:11;7.47;;;4.27;;
6983;SDS011;3532;51.118;7.210;2024-01-16T09:24:37;8.70;;;4.83;;
6983;SDS011;3532;51.118;7.210;2024-01-16T09:27:02;9.07;;;4.60;;
6983;SDS011;3532;51.118;7.210;2024-01-16T09:29:31;10.93;;;5.07;;
6983;SDS011;3532;51.118;7.210;2024-01-16T09:31:56;9.73;;;3.97;;
6983;SDS011;3532;51.118;7.210;2024-01-16T09:34:22;12.13;;;5.73;;
6983;SDS011;3532;51.118;7.210;2024-01-16T09:36:47;8.83;;;4.83;;
6983;SDS011;3532;51.118;7.210;2024-01-16T09:39:12;10.47;;;5.13;;
6983;SDS011;3532;51.118;7.210;2024-01-16T09:41:38;10.75;;;4.63;;
6983;SDS011;3532;51.118;7.210;2024-01-16T09:44:04;7.80;;;4.50;;
6983;SDS011;3532;51.118;7.210;2024-01-16T09:46:30;12.73;;;4.70;;
6983;SDS011;3532;51.118;7.210;2024-01-16T09:48:56;6.45;;;3.90;;
6983;SDS011;3532;51.118;7.210;2024-01-16T09:51:22;6.87;;;4.00;;
6983;SDS011;3532;51.118;7.210;2024-01-16T09:53:48;7.23;;;3.43;;
6983;SDS011;3532;51.118;7.210;2024-01-16T09:56:16;5.27;;;3.97;;
6983;SDS011;3532;51.118;7.210;2024-01-16T09:58:43;8.27;;;4.35;;
6983;SDS011;3532;51.118;7.210;2024-01-16T10:01:10;7.05;;;4.22;;
6983;SDS011;3532;51.118;7.210;2024-01-16T10:03:36;9.23;;;3.83;;
6983;SDS011;3532;51.118;7.210;2024-01-16T10:06:03;8.23;;;3.90;;
6983;SDS011;3532;51.118;7.210;2024-01-16T10:08:29;8.80;;;3.85;;
6983;SDS011;3532;51.118;7.210;2024-01-16T10:10:55;7.63;;;4.30;;
6983;SDS011;3532;51.118;7.210;2024-01-16T10:13:20;9.10;;;4.37;;
6983;SDS011;3532;51.118;7.210;2024-01-16T10:15:49;5.07;;;3.73;;
6983;SDS011;3532;51.118;7.210;2024-01-16T10:18:28;9.98;;;4.47;;
6983;SDS011;3532;51.118;7.210;2024-01-16T10:20:57;7.85;;;4.15;;
6983;SDS011;3532;51.118;7.210;2024-01-16T10:23:23;6.93;;;4.70;;
6983;SDS011;3532;51.118;7.210;2024-01-16T10:26:08;7.65;;;4.07;;
6983;SDS011;3532;51.118;7.210;2024-01-16T10:28:37;7.20;;;4.38;;
6983;SDS011;3532;51.118;7.210;2024-01-16T10:31:04;8.35;;;4.15;;
6983;SDS011;3532;51.118;7.210;2024-01-16T10:33:31;13.35;;;4.38;;
6983;SDS011;3532;51.118;7.210;2024-01-16T10:36:12;10.07;;;4.63;;
6983;SDS011;3532;51.118;7.210;2024-01-16T10:38:38;10.50;;;4.45;;
6983;SDS011;3532;51.118;7.210;2024-01-16T10:41:05;11.07;;;4.90;;
6983;SDS011;3532;51.118;7.210;2024-01-16T10:43:31;6.22;;;4.47;;
6983;SDS011;3532;51.118;7.210;2024-01-16T10:46:06;9.87;;;4.33;;
6983;SDS011;3532;51.118;7.210;2024-01-16T10:48:39;12.02;;;4.65;;
6983;SDS011;3532;51.118;7.210;2024-01-16T10:51:13;4.93;;;3.90;;
6983;SDS011;3532;51.118;7.210;2024-01-16T10:53:42;8.60;;;4.65;;
6983;SDS011;3532;51.118;7.210;2024-01-16T10:56:14;8.10;;;4.38;;
6983;SDS011;3532;51.118;7.210;2024-01-16T10:58:42;8.20;;;3.95;;
6983;SDS011;3532;51.118;7.210;2024-01-16T11:01:14;7.80;;;5.47;;
6983;SDS011;3532;51.118;7.210;2024-01-16T11:03:47;10.40;;;4.05;;
6983;SDS011;3532;51.118;7.210;2024-01-16T11:06:14;5.93;;;4.80;;
6983;SDS011;3532;51.118;7.210;2024-01-16T11:08:41;10.18;;;4.55;;
6983;SDS011;3532;51.118;7.210;2024-01-16T11:11:07;8.20;;;3.97;;
6983;SDS011;3532;51.118;7.210;2024-01-16T11:13:34;9.07;;;4.35;;
6983;SDS011;3532;51.118;7.210;2024-01-16T11:16:00;7.60;;;4.57;;
6983;SDS011;3532;51.118;7.210;2024-01-16T11:18:27;10.35;;;4.82;;
6983;SDS011;3532;51.118;7.210;2024-01-16T11:20:54;13.40;;;4.63;;
6983;SDS011;3532;51.118;7.210;2024-01-16T11:23:20;5.43;;;4.70;;
6983;SDS011;3532;51.118;7.210;2024-01-16T11:25:45;10.70;;;3.90;;
6983;SDS011;3532;51.118;7.210;2024-01-16T11:28:12;10.30;;;4.30;;
6983;SDS011;3532;51.118;7.210;2024-01-16T11:30:38;11.65;;;5.05;;
6983;SDS011;3532;51.118;7.210;2024-01-16T11:33:04;6.77;;;4.70;;
6983;SDS011;3532;51.118;7.210;2024-01-16T11:35:36;8.83;;;3.90;;
6983;SDS011;3532;51.118;7.210;2024-01-16T11:38:10;9.93;;;4.50;;
6983;SDS011;3532;51.118;7.210;2024-01-16T11:40:41;9.10;;;4.53;;
6983;SDS011;3532;51.118;7.210;2024-01-16T11:45:56;7.88;;;4.88;;
6983;SDS011;3532;51.118;7.210;2024-01-16T11:48:23;11.00;;;4.93;;
6983;SDS011;3532;51.118;7.210;2024-01-16T11:50:48;10.97;;;4.50;;
6983;SDS011;3532;51.118;7.210;2024-01-16T11:53:35;9.73;;;4.43;;
6983;SDS011;3532;51.118;7.210;2024-01-16T12:01:44;7.07;;;4.40;;
6983;SDS011;3532;51.118;7.210;2024-01-16T12:04:10;7.63;;;4.33;;
6983;SDS011;3532;51.118;7.210;2024-01-16T12:06:36;10.87;;;4.27;;
6983;SDS011;3532;51.118;7.210;2024-01-16T12:09:14;8.38;;;4.43;;
6983;SDS011;3532;51.118;7.210;2024-01-16T12:11:40;7.20;;;4.53;;
6983;SDS011;3532;51.118;7.210;2024-01-16T12:14:08;5.72;;;4.40;;
6983;SDS011;3532;51.118;7.210;2024-01-16T12:16:34;11.23;;;4.57;;
6983;SDS011;3532;51.118;7.210;2024-01-16T12:21:32;6.80;;;4.25;;
6983;SDS011;3532;51.118;7.210;2024-01-16T12:23:59;9.48;;;4.10;;
6983;SDS011;3532;51.118;7.210;2024-01-16T12:26:24;9.83;;;4.83;;
6983;SDS011;3532;51.118;7.210;2024-01-16T12:28:51;9.37;;;4.10;;
6983;SDS011;3532;51.118;7.210;2024-01-16T12:31:19;11.15;;;4.30;;
6983;SDS011;3532;51.118;7.210;2024-01-16T12:33:44;5.47;;;3.57;;
6983;SDS011;3532;51.118;7.210;2024-01-16T12:36:09;17.93;;;5.27;;
6983;SDS011;3532;51.118;7.210;2024-01-16T12:38:35;9.57;;;4.33;;
6983;SDS011;3532;51.118;7.210;2024-01-16T12:41:01;7.67;;;4.43;;
6983;SDS011;3532;51.118;7.210;2024-01-16T12:43:27;11.40;;;4.83;;
6983;SDS011;3532;51.118;7.210;2024-01-16T12:45:56;9.00;;;4.40;;
6983;SDS011;3532;51.118;7.210;2024-01-16T12:48:22;7.90;;;4.82;;
6983;SDS011;3532;51.118;7.210;2024-01-16T12:50:48;6.20;;;3.92;;
6983;SDS011;3532;51.118;7.210;2024-01-16T12:53:13;8.90;;;4.87;;
6983;SDS011;3532;51.118;7.210;2024-01-16T12:55:41;4.30;;;3.83;;
6983;SDS011;3532;51.118;7.210;2024-01-16T12:58:13;9.83;;;3.87;;
6983;SDS011;3532;51.118;7.210;2024-01-16T13:00:40;5.85;;;4.53;;
6983;SDS011;3532;51.118;7.210;2024-01-16T13:03:06;11.37;;;4.60;;
6983;SDS011;3532;51.118;7.210;2024-01-16T13:05:31;7.87;;;3.97;;
6983;SDS011;3532;51.118;7.210;2024-01-16T13:08:01;7.00;;;4.13;;
6983;SDS011;3532;51.118;7.210;2024-01-16T13:10:29;6.60;;;4.60;;
6983;SDS011;3532;51.118;7.210;2024-01-16T13:13:18;8.20;;;4.80;;
6983;SDS011;3532;51.118;7.210;2024-01-16T13:15:43;6.22;;;4.22;;
6983;SDS011;3532;51.118;7.210;2024-01-16T13:18:19;7.80;;;4.93;;
6983;SDS011;3532;51.118;7.210;2024-01-16T13:20:51;7.32;;;4.20;;
6983;SDS011;3532;51.118;7.210;2024-01-16T13:23:18;6.70;;;4.82;;
6983;SDS011;3532;51.118;7.210;2024-01-16T13:25:44;10.67;;;4.47;;
6983;SDS011;3532;51.118;7.210;2024-01-16T13:28:12;11.70;;;5.32;;
6983;SDS011;3532;51.118;7.210;2024-01-16T13:30:38;8.60;;;4.95;;
6983;SDS011;3532;51.118;7.210;2024-01-16T13:33:05;10.37;;;5.00;;
6983;SDS011;3532;51.118;7.210;2024-01-16T13:35:31;8.35;;;4.50;;
6983;SDS011;3532;51.118;7.210;2024-01-16T13:37:56;9.40;;;5.03;;
6983;SDS011;3532;51.118;7.210;2024-01-16T13:40:21;10.73;;;4.53;;
6983;SDS011;3532;51.118;7.210;2024-01-16T13:42:47;10.50;;;4.53;;
6983;SDS011;3532;51.118;7.210;2024-01-16T13:45:13;7.03;;;4.50;;
6983;SDS011;3532;51.118;7.210;2024-01-16T13:47:38;9.03;;;4.23;;
6983;SDS011;3532;51.118;7.210;2024-01-16T13:50:05;12.00;;;5.32;;
6983;SDS011;3532;51.118;7.210;2024-01-16T13:52:31;7.93;;;4.63;;
6983;SDS011;3532;51.118;7.210;2024-01-16T13:54:56;8.90;;;5.37;;
6983;SDS011;3532;51.118;7.210;2024-01-16T13:57:22;11.67;;;4.67;;
6983;SDS011;3532;51.118;7.210;2024-01-16T13:59:48;9.17;;;5.10;;
6983;SDS011;3532;51.118;7.210;2024-01-16T14:02:13;10.50;;;4.33;;
6983;SDS011;3532;51.118;7.210;2024-01-16T14:04:38;11.90;;;4.33;;
6983;SDS011;3532;51.118;7.210;2024-01-16T14:07:04;12.87;;;4.60;;
6983;SDS011;3532;51.118;7.210;2024-01-16T14:09:32;6.00;;;4.00;;
6983;SDS011;3532;51.118;7.210;2024-01-16T14:12:01;6.90;;;4.40;;
6983;SDS011;3532;51.118;7.210;2024-01-16T14:14:26;7.83;;;4.27;;
6983;SDS011;3532;51.118;7.210;2024-01-16T14:16:52;8.67;;;4.37;;
6983;SDS011;3532;51.118;7.210;2024-01-16T14:19:19;5.20;;;4.47;;
6983;SDS011;3532;51.118;7.210;2024-01-16T14:21:44;10.43;;;4.90;;
6983;SDS011;3532;51.118;7.210;2024-01-16T14:24:09;7.27;;;4.67;;
6983;SDS011;3532;51.118;7.210;2024-01-16T14:26:35;7.13;;;4.80;;
6983;SDS011;3532;51.118;7.210;2024-01-16T14:29:00;6.03;;;4.77;;
6983;SDS011;3532;51.118;7.210;2024-01-16T14:31:26;6.83;;;4.33;;
6983;SDS011;3532;51.118;7.210;2024-01-16T14:33:51;9.40;;;3.83;;
6983;SDS011;3532;51.118;7.210;2024-01-16T14:36:18;10.13;;;5.20;;
6983;SDS011;3532;51.118;7.210;2024-01-16T14:38:43;11.83;;;5.17;;
6983;SDS011;3532;51.118;7.210;2024-01-16T14:41:08;8.87;;;5.30;;
6983;SDS011;3532;51.118;7.210;2024-01-16T14:43:34;7.23;;;4.73;;
6983;SDS011;3532;51.118;7.210;2024-01-16T14:45:59;7.50;;;5.13;;
6983;SDS011;3532;51.118;7.210;2024-01-16T14:48:24;12.33;;;5.27;;
6983;SDS011;3532;51.118;7.210;2024-01-16T14:50:50;9.87;;;4.90;;
6983;SDS011;3532;51.118;7.210;2024-01-16T14:53:16;10.40;;;4.97;;
6983;SDS011;3532;51.118;7.210;2024-01-16T14:55:42;9.60;;;4.90;;
6983;SDS011;3532;51.118;7.210;2024-01-16T14:58:07;7.30;;;5.33;;
6983;SDS011;3532;51.118;7.210;2024-01-16T15:00:33;9.03;;;4.83;;
6983;SDS011;3532;51.118;7.210;2024-01-16T15:02:58;7.70;;;5.30;;
6983;SDS011;3532;51.118;7.210;2024-01-16T15:05:24;10.80;;;4.90;;